Time;durP1;ratioP1;P1;durP2;ratioP2;P2;SDS_P1;SDS_P2;PMS_P1;PMS_P2;Temp;Humidity;BMP_temperature;BMP_pressure;BME280_temperature;BME280_humidity;BME280_pressure;Samples;Min_cycle;Max_cycle;Signal;HPM_P1;HPM_P2
2024/01/02 00:00:31;;;;;;;69.05;65.75;;;;;;;9.44;67.21;99888.88;5012855;28;20042;-73
2024/01/02 00:02:56;;;;;;;69.82;66.35;;;;;;;9.43;67.35;99882.66;5012709;28;20458;-73
2024/01/02 00:05:22;;;;;;;70.95;67.55;;;;;;;9.44;67.42;99873.50;5012877;28;20049;-74
2024/01/02 00:07:47;;;;;;;69.75;66.35;;;;;;;9.45;67.43;99874.31;5019737;28;20056;-74
2024/01/02 00:10:14;;;;;;;68.30;65.00;;;;;;;9.44;67.42;99856.50;5030980;28;20079;-74
2024/01/02 00:12:39;;;;;;;69.05;65.95;;;;;;;9.42;67.46;99845.97;5012675;28;20053;-74
2024/01/02 00:15:05;;;;;;;68.35;65.05;;;;;;;9.41;67.53;99827.38;5020604;28;20033;-74
2024/01/02 00:17:31;;;;;;;66.82;63.78;;;;;;;9.42;67.85;99812.84;5013388;28;20125;-74
2024/01/02 00:19:56;;;;;;;70.88;67.47;;;;;;;9.41;67.67;99790.47;5025295;28;20109;-74
2024/01/02 00:22:21;;;;;;;67.38;63.97;;;;;;;9.41;67.70;99771.59;5027799;28;20215;-74
2024/01/02 00:24:47;;;;;;;68.20;65.00;;;;;;;9.42;67.52;99772.41;5027498;28;20040;-74
2024/01/02 00:27:12;;;;;;;63.00;60.10;;;;;;;9.42;67.53;99767.00;5038511;28;20844;-74
2024/01/02 00:29:38;;;;;;;62.97;59.90;;;;;;;9.41;67.59;99747.34;5026303;28;20034;-74
2024/01/02 00:32:04;;;;;;;63.05;60.15;;;;;;;9.41;67.71;99739.25;5017167;28;20082;-74
2024/01/02 00:34:29;;;;;;;67.90;64.80;;;;;;;9.41;67.77;99727.66;5031683;28;20390;-74
2024/01/02 00:36:54;;;;;;;64.13;61.10;;;;;;;9.42;67.66;99715.78;5031509;28;20029;-73
2024/01/02 00:39:20;;;;;;;69.43;66.32;;;;;;;9.43;67.86;99703.97;5032968;28;20037;-74
2024/01/02 00:41:45;;;;;;;64.05;60.88;;;;;;;9.43;67.79;99693.97;5032159;28;20444;-73
2024/01/02 00:44:11;;;;;;;67.20;64.13;;;;;;;9.40;67.78;99683.72;5002733;28;20049;-73
2024/01/02 00:46:37;;;;;;;66.60;63.55;;;;;;;9.40;67.87;99672.94;5012312;28;20424;-74
2024/01/02 00:49:03;;;;;;;66.15;63.05;;;;;;;9.39;67.95;99657.84;5011677;28;20050;-73
2024/01/02 00:51:28;;;;;;;66.53;63.33;;;;;;;9.42;68.12;99659.19;5045922;28;20432;-73
2024/01/02 00:53:53;;;;;;;70.60;67.30;;;;;;;9.42;67.80;99643.03;5015416;28;20034;-73
2024/01/02 00:56:19;;;;;;;67.30;63.85;;;;;;;9.41;68.01;99631.44;5017783;28;20358;-73
2024/01/02 00:58:44;;;;;;;69.80;66.70;;;;;;;9.42;67.86;99627.66;5030490;28;20120;-73
2024/01/02 01:01:10;;;;;;;66.70;63.70;;;;;;;9.43;67.69;99615.81;5030054;28;20116;-74
2024/01/02 01:03:35;;;;;;;68.30;65.03;;;;;;;9.43;67.90;99612.31;5016926;28;20076;-73
2024/01/02 01:06:03;;;;;;;66.22;63.10;;;;;;;9.43;68.00;99612.31;5026893;28;20455;-73
2024/01/02 01:08:28;;;;;;;67.40;64.32;;;;;;;9.42;68.08;99597.19;5027453;28;20050;-73
2024/01/02 01:10:53;;;;;;;66.78;63.60;;;;;;;9.43;68.13;99593.44;5019119;28;20489;-73
2024/01/02 01:13:19;;;;;;;65.40;62.30;;;;;;;9.42;68.12;99592.63;5011928;28;20074;-73
2024/01/02 01:15:44;;;;;;;71.63;68.22;;;;;;;9.43;68.09;99588.88;5026034;28;20045;-73
2024/01/02 01:18:09;;;;;;;66.75;63.67;;;;;;;9.45;68.17;99584.03;5015778;28;20115;-73
2024/01/02 01:20:35;;;;;;;65.82;62.83;;;;;;;9.45;68.01;99564.31;5018036;28;20069;-73
2024/01/02 01:23:00;;;;;;;69.50;66.28;;;;;;;9.45;68.08;99549.00;5017085;28;20478;-73
2024/01/02 01:25:26;;;;;;;67.65;64.60;;;;;;;9.45;68.11;99530.13;5022310;28;20066;-73
2024/01/02 01:27:51;;;;;;;67.80;64.32;;;;;;;9.44;68.11;99515.00;5010251;28;20038;-73
2024/01/02 01:30:16;;;;;;;65.60;62.55;;;;;;;9.44;68.23;99511.50;5044081;28;20154;-73
2024/01/02 01:32:42;;;;;;;72.10;68.90;;;;;;;9.44;68.25;99498.84;5029783;28;20045;-73
2024/01/02 01:35:08;;;;;;;68.43;65.22;;;;;;;9.45;68.33;99486.16;5035737;28;20035;-73
2024/01/02 01:37:33;;;;;;;73.55;70.25;;;;;;;9.45;68.28;99472.69;5023596;28;20383;-73
2024/01/02 01:39:58;;;;;;;72.53;69.03;;;;;;;9.46;68.28;99460.84;5024639;28;20514;-73
2024/01/02 01:42:24;;;;;;;66.63;63.63;;;;;;;9.45;68.39;99453.81;5033231;28;20064;-73
2024/01/02 01:44:49;;;;;;;68.43;65.32;;;;;;;9.45;68.37;99448.44;5036293;28;20087;-73
2024/01/02 01:47:15;;;;;;;73.00;69.60;;;;;;;9.45;68.39;99451.13;5015473;28;20030;-74
2024/01/02 01:49:41;;;;;;;63.88;60.97;;;;;;;9.45;68.39;99438.47;5027634;28;20040;-73
2024/01/02 01:52:08;;;;;;;67.93;64.78;;;;;;;9.45;68.24;99437.66;5037267;28;20021;-73
2024/01/02 01:54:33;;;;;;;68.53;65.22;;;;;;;9.44;68.73;99433.34;5024536;28;20053;-74
2024/01/02 01:56:58;;;;;;;70.35;67.05;;;;;;;9.45;68.44;99414.22;5014633;28;20030;-73
2024/01/02 01:59:24;;;;;;;64.40;61.40;;;;;;;9.45;68.51;99414.22;5018254;28;20520;-74
2024/01/02 02:01:50;;;;;;;63.67;60.78;;;;;;;9.45;68.73;99411.53;5034106;28;20037;-73
2024/01/02 02:04:16;;;;;;;61.95;59.15;;;;;;;9.45;68.44;99403.44;5026948;28;20106;-74
2024/01/02 02:06:42;;;;;;;67.40;64.38;;;;;;;9.45;68.45;99389.13;5035276;28;20124;-73
2024/01/02 02:09:07;;;;;;;71.13;67.82;;;;;;;9.45;68.56;99375.66;5033582;28;20056;-73
2024/01/02 02:11:35;;;;;;;67.15;64.07;;;;;;;9.46;68.59;99370.00;5037383;28;20140;-73
2024/01/02 02:14:01;;;;;;;63.25;60.28;;;;;;;9.47;68.59;99355.44;5040210;28;20055;-73
2024/01/02 02:16:27;;;;;;;65.40;62.45;;;;;;;9.46;68.55;99353.84;5028812;28;20110;-73
2024/01/02 02:18:52;;;;;;;62.47;59.63;;;;;;;9.47;68.40;99346.56;5014772;28;20083;-73
2024/01/02 02:21:17;;;;;;;65.20;62.30;;;;;;;9.48;68.60;99327.44;5031877;28;20037;-73
2024/01/02 02:23:43;;;;;;;63.70;60.65;;;;;;;9.49;68.62;99333.63;5013526;28;20121;-73
2024/01/02 02:26:08;;;;;;;70.43;67.13;;;;;;;9.46;68.83;99328.78;5025156;28;20030;-73
2024/01/02 02:28:33;;;;;;;66.50;63.47;;;;;;;9.46;68.71;99294.53;5030233;28;20045;-73
2024/01/02 02:30:59;;;;;;;64.15;61.10;;;;;;;9.46;68.69;99285.66;5038048;28;20476;-73
2024/01/02 02:33:24;;;;;;;68.40;65.30;;;;;;;9.45;69.00;99292.94;5039956;28;20039;-73
2024/01/02 02:35:50;;;;;;;66.22;62.78;;;;;;;9.45;69.07;99276.75;5016469;28;20104;-73
2024/01/02 02:38:15;;;;;;;66.78;63.67;;;;;;;9.46;68.79;99282.94;5028455;28;20071;-73
2024/01/02 02:40:41;;;;;;;64.05;61.17;;;;;;;9.45;68.94;99274.06;5045495;28;20045;-73
2024/01/02 02:43:07;;;;;;;65.50;62.47;;;;;;;9.46;69.00;99272.16;5032882;28;20473;-73
2024/01/02 02:45:34;;;;;;;66.75;63.70;;;;;;;9.46;69.14;99264.88;5034206;28;20040;-73
2024/01/02 02:47:59;;;;;;;67.00;63.97;;;;;;;9.46;68.95;99245.22;5014310;28;20030;-73
2024/01/02 02:50:25;;;;;;;65.75;62.75;;;;;;;9.45;69.08;99230.94;5029628;28;20045;-73
2024/01/02 02:52:50;;;;;;;71.75;68.45;;;;;;;9.47;69.04;99217.19;5015075;28;20536;-74
2024/01/02 02:55:15;;;;;;;65.75;62.65;;;;;;;9.48;69.00;99198.06;5048272;28;20037;-73
2024/01/02 02:57:42;;;;;;;64.03;61.13;;;;;;;9.47;69.13;99195.63;5020240;28;20034;-73
2024/01/02 03:00:09;;;;;;;64.32;61.28;;;;;;;9.49;69.25;99191.56;5013858;28;20026;-73
2024/01/02 03:02:34;;;;;;;65.47;62.47;;;;;;;9.49;68.65;99175.41;5014073;28;20026;-73
2024/01/02 03:05:00;;;;;;;66.18;63.15;;;;;;;9.49;68.90;99167.31;5020700;28;20363;-73
2024/01/02 03:07:26;;;;;;;64.13;61.22;;;;;;;9.49;68.97;99175.41;5025753;28;20120;-73
2024/01/02 03:09:51;;;;;;;68.35;65.30;;;;;;;9.47;69.01;99166.78;5031889;28;20116;-73
2024/01/02 03:12:16;;;;;;;63.15;60.10;;;;;;;9.47;69.14;99153.28;5031916;28;20820;-72
2024/01/02 03:14:42;;;;;;;66.22;63.25;;;;;;;9.47;69.23;99147.09;5048133;28;20053;-73
2024/01/02 03:17:07;;;;;;;67.85;64.72;;;;;;;9.48;69.31;99148.72;5017592;28;20038;-73
2024/01/02 03:19:33;;;;;;;63.55;60.67;;;;;;;9.48;69.24;99148.72;5039438;28;20550;-72
2024/01/02 03:21:59;;;;;;;66.22;63.22;;;;;;;9.49;69.38;99128.78;5013740;28;20034;-72
2024/01/02 03:24:24;;;;;;;63.88;61.00;;;;;;;9.50;69.29;99133.09;5012628;28;20145;-72
2024/01/02 03:26:50;;;;;;;61.30;58.53;;;;;;;9.49;69.24;99131.47;5012256;28;20042;-72
2024/01/02 03:29:16;;;;;;;66.13;63.03;;;;;;;9.49;69.37;99126.88;5020205;28;20046;-72
2024/01/02 03:31:42;;;;;;;66.00;63.03;;;;;;;9.49;69.21;99110.72;5020189;28;20461;-72
2024/01/02 03:34:08;;;;;;;71.30;68.00;;;;;;;9.50;69.13;99119.63;5044909;28;20040;-72
2024/01/02 03:36:33;;;;;;;62.22;59.42;;;;;;;9.50;69.26;99112.34;5031249;28;20148;-72
2024/01/02 03:38:59;;;;;;;60.67;57.92;;;;;;;9.50;69.17;99117.72;5023905;28;20034;-72
2024/01/02 03:41:24;;;;;;;64.25;61.35;;;;;;;9.50;69.41;99103.44;4995550;28;20041;-72
2024/01/02 03:43:49;;;;;;;66.13;63.17;;;;;;;9.50;69.42;99108.84;5036679;28;20026;-72
2024/01/02 03:46:15;;;;;;;70.57;67.28;;;;;;;9.51;69.44;99103.16;5011538;28;20038;-72
2024/01/02 03:48:40;;;;;;;68.88;65.75;;;;;;;9.47;69.30;99096.69;5017576;28;20078;-72
2024/01/02 03:51:06;;;;;;;65.20;62.20;;;;;;;9.47;69.41;99093.19;5039176;28;20060;-72
2024/01/02 03:53:31;;;;;;;67.18;64.18;;;;;;;9.46;69.64;99083.50;5012738;28;20041;-72
2024/01/02 03:55:58;;;;;;;69.70;66.57;;;;;;;9.45;69.45;99079.19;5040735;28;20036;-72
2024/01/02 03:58:24;;;;;;;70.43;67.28;;;;;;;9.45;69.41;99076.50;5023709;28;20036;-73
2024/01/02 04:00:50;;;;;;;68.05;64.97;;;;;;;9.45;69.76;99069.25;5042861;28;20037;-72
2024/01/02 04:03:16;;;;;;;68.82;65.63;;;;;;;9.46;69.74;99070.03;5019033;28;20330;-73
2024/01/02 04:05:41;;;;;;;66.20;63.20;;;;;;;9.47;69.63;99071.63;5017752;28;20030;-73
2024/01/02 04:08:06;;;;;;;68.53;65.40;;;;;;;9.47;69.46;99063.56;5017398;28;20462;-73
2024/01/02 04:10:32;;;;;;;66.40;63.40;;;;;;;9.47;69.72;99061.66;5020706;28;20033;-73
2024/01/02 04:12:57;;;;;;;64.72;61.83;;;;;;;9.48;69.58;99065.19;5013001;28;20054;-72
2024/01/02 04:15:23;;;;;;;67.00;63.92;;;;;;;9.48;69.46;99057.91;5031310;28;20136;-72
2024/01/02 04:17:48;;;;;;;66.55;63.55;;;;;;;9.51;69.74;99056.53;5031440;28;20072;-72
2024/01/02 04:20:13;;;;;;;69.15;65.95;;;;;;;9.52;69.60;99060.84;5030299;28;20452;-73
2024/01/02 04:22:39;;;;;;;68.90;65.78;;;;;;;9.51;69.81;99051.16;5031035;28;20052;-72
2024/01/02 04:25:06;;;;;;;65.95;62.97;;;;;;;9.50;70.01;99044.97;5032220;28;20112;-71
2024/01/02 04:27:32;;;;;;;63.33;60.45;;;;;;;9.50;69.68;99058.44;5029209;28;20029;-72
2024/01/02 04:29:57;;;;;;;68.28;65.18;;;;;;;9.51;70.02;99051.16;5023876;28;20485;-73
2024/01/02 04:32:23;;;;;;;72.55;69.20;;;;;;;9.51;70.14;99053.84;5031042;28;20038;-71
2024/01/02 04:34:48;;;;;;;70.80;67.65;;;;;;;9.51;70.35;99046.56;5012488;28;20394;-71
2024/01/02 04:37:13;;;;;;;67.40;64.25;;;;;;;9.52;70.30;99050.06;5020001;28;20038;-71
2024/01/02 04:39:39;;;;;;;66.95;63.95;;;;;;;9.52;70.38;99056.28;5022262;28;20116;-71
2024/01/02 04:42:05;;;;;;;71.05;67.85;;;;;;;9.54;70.53;99046.00;5029689;28;20040;-71
2024/01/02 04:44:30;;;;;;;68.75;65.65;;;;;;;9.53;70.50;99051.69;5014054;28;20128;-71
2024/01/02 04:46:55;;;;;;;66.55;63.55;;;;;;;9.55;70.48;99052.22;5012506;28;20038;-71
2024/01/02 04:49:21;;;;;;;70.93;67.68;;;;;;;9.56;70.71;99037.66;5026158;28;20043;-71
2024/01/02 04:51:46;;;;;;;65.03;62.10;;;;;;;9.57;71.01;99041.13;5035997;28;20033;-71
2024/01/02 04:54:12;;;;;;;68.35;65.22;;;;;;;9.56;71.03;99040.34;5029918;28;20042;-71
2024/01/02 04:56:37;;;;;;;66.75;63.75;;;;;;;9.56;71.05;99058.41;5029589;28;20075;-71
2024/01/02 04:59:03;;;;;;;67.32;64.28;;;;;;;9.56;71.17;99053.81;5029556;28;20087;-72
2024/01/02 05:01:29;;;;;;;67.03;63.92;;;;;;;9.57;71.43;99049.22;5033062;28;20117;-71
2024/01/02 05:03:55;;;;;;;65.10;62.17;;;;;;;9.58;71.51;99048.97;5025090;28;20144;-71
2024/01/02 05:06:23;;;;;;;67.20;64.10;;;;;;;9.59;71.60;99069.44;5011593;28;20034;-71
2024/01/02 05:08:48;;;;;;;68.22;65.18;;;;;;;9.60;71.86;99062.97;5012247;28;20037;-71
2024/01/02 05:11:14;;;;;;;66.68;63.58;;;;;;;9.61;71.91;99053.00;5011676;28;20030;-72
2024/01/02 05:13:39;;;;;;;67.75;64.70;;;;;;;9.63;71.84;99062.41;5039678;28;20409;-72
2024/01/02 05:16:08;;;;;;;65.15;62.22;;;;;;;9.64;72.09;99071.31;5018624;28;20061;-72
2024/01/02 05:18:33;;;;;;;67.25;64.22;;;;;;;9.67;71.81;99062.66;5011561;28;20034;-72
2024/01/02 05:20:59;;;;;;;65.60;62.67;;;;;;;9.67;71.74;99060.75;5012079;28;20477;-72
2024/01/02 05:23:24;;;;;;;65.32;62.33;;;;;;;9.70;72.17;99078.25;5018374;28;20119;-72
2024/01/02 05:25:49;;;;;;;71.60;68.40;;;;;;;9.72;71.86;99065.31;5023555;28;20389;-72
2024/01/02 05:28:15;;;;;;;70.38;67.20;;;;;;;9.74;71.95;99074.75;5011392;28;20030;-72
2024/01/02 05:30:40;;;;;;;69.10;66.00;;;;;;;9.74;71.74;99072.03;5013366;28;20505;-73
2024/01/02 05:33:05;;;;;;;67.93;64.88;;;;;;;9.75;72.21;99059.38;5024635;28;20116;-73
2024/01/02 05:35:31;;;;;;;67.45;64.32;;;;;;;9.75;72.58;99076.38;5025816;28;20044;-72
2024/01/02 05:37:56;;;;;;;66.22;63.22;;;;;;;9.75;72.47;99064.75;5021903;28;20060;-72
2024/01/02 05:40:22;;;;;;;69.93;66.63;;;;;;;9.77;72.88;99065.28;5024278;28;20033;-72
2024/01/02 05:42:47;;;;;;;73.57;70.28;;;;;;;9.82;72.73;99072.56;5011809;28;20033;-72
2024/01/02 05:45:13;;;;;;;70.28;67.13;;;;;;;9.84;72.24;99070.38;5017661;28;20103;-72
2024/01/02 05:47:38;;;;;;;70.28;67.10;;;;;;;9.87;72.40;99086.00;5013880;28;20120;-72
2024/01/02 05:50:05;;;;;;;74.15;70.85;;;;;;;9.89;72.53;99086.53;5024518;28;20088;-72
2024/01/02 05:52:31;;;;;;;71.78;68.47;;;;;;;9.89;72.76;99090.03;5019090;28;20033;-72
2024/01/02 05:54:56;;;;;;;73.68;70.38;;;;;;;9.90;72.62;99085.44;5034807;28;20037;-72
2024/01/02 05:57:21;;;;;;;75.55;72.05;;;;;;;9.94;72.84;99091.91;5029615;28;20120;-73
2024/01/02 05:59:47;;;;;;;73.38;70.07;;;;;;;9.95;72.65;99097.03;5030471;28;20069;-73
2024/01/02 06:02:12;;;;;;;68.75;65.65;;;;;;;9.98;72.76;99098.38;5044440;28;20067;-73
2024/01/02 06:04:38;;;;;;;74.53;71.20;;;;;;;10.01;72.74;99110.50;5015984;28;20095;-73
2024/01/02 06:07:03;;;;;;;74.47;71.13;;;;;;;10.05;72.59;99115.03;5026279;28;20025;-72
2024/01/02 06:09:29;;;;;;;77.60;74.03;;;;;;;10.09;72.72;99120.69;5025537;28;20069;-72
2024/01/02 06:11:54;;;;;;;79.82;76.28;;;;;;;10.12;72.67;99128.22;5021758;28;20165;-73
2024/01/02 06:14:20;;;;;;;76.20;72.78;;;;;;;10.12;72.25;99128.22;5024439;28;20041;-73
2024/01/02 06:16:45;;;;;;;74.10;70.78;;;;;;;10.13;72.97;99127.13;5029077;28;20389;-77
2024/01/02 06:19:11;;;;;;;75.35;71.90;;;;;;;10.18;72.97;99124.41;5009629;28;20042;-74
2024/01/02 06:21:37;;;;;;;75.78;72.35;;;;;;;10.25;72.99;99130.28;5029646;28;20555;-74
2024/01/02 06:24:02;;;;;;;79.43;75.75;;;;;;;10.28;72.61;99142.44;5028265;28;20037;-74
2024/01/02 06:26:28;;;;;;;80.28;76.22;;;;;;;10.31;72.86;99145.41;5024906;28;20041;-74
2024/01/02 06:28:53;;;;;;;73.72;70.32;;;;;;;10.34;72.55;99149.44;5032847;28;20473;-74
2024/01/02 06:31:20;;;;;;;74.82;71.32;;;;;;;10.37;72.90;99146.16;5015204;28;20045;-75
2024/01/02 06:33:45;;;;;;;78.70;75.18;;;;;;;10.40;72.59;99142.91;5034077;28;20033;-74
2024/01/02 06:36:11;;;;;;;76.72;73.30;;;;;;;10.40;72.43;99146.41;5034016;28;20079;-74
2024/01/02 06:38:38;;;;;;;80.65;76.85;;;;;;;10.43;72.53;99149.63;5014240;28;20064;-77
2024/01/02 06:41:04;;;;;;;79.95;76.32;;;;;;;10.46;72.88;99147.19;5025108;28;20428;-73
2024/01/02 06:43:29;;;;;;;74.78;70.20;;;;;;;10.49;72.60;99162.81;5031929;28;20519;-74
2024/01/02 06:45:55;;;;;;;82.18;78.47;;;;;;;10.50;72.22;99160.91;5036030;28;20037;-76
2024/01/02 06:48:20;;;;;;;82.03;77.95;;;;;;;10.54;72.83;99161.97;5009082;28;20474;-73
2024/01/02 06:50:46;;;;;;;75.30;71.90;;;;;;;10.57;72.76;99158.72;5024795;28;20037;-73
2024/01/02 06:53:11;;;;;;;79.05;75.05;;;;;;;10.57;72.39;99167.63;5020291;28;20034;-75
2024/01/02 06:55:36;;;;;;;84.70;80.32;;;;;;;10.61;72.79;99168.69;5014172;28;20121;-74
2024/01/02 06:58:02;;;;;;;77.10;73.43;;;;;;;10.64;72.92;99161.91;5036016;28;20037;-78
2024/01/02 07:00:28;;;;;;;83.90;79.50;;;;;;;10.65;72.91;99177.00;5029821;28;20123;-73
2024/01/02 07:02:54;;;;;;;81.57;77.88;;;;;;;10.72;72.68;99174.00;5032809;28;20375;-79
2024/01/02 07:05:19;;;;;;;81.57;77.97;;;;;;;10.75;72.72;99176.94;5014623;28;20037;-74
2024/01/02 07:07:46;;;;;;;83.05;79.25;;;;;;;10.78;72.87;99180.97;5017945;28;20533;-74
2024/01/02 07:10:11;;;;;;;82.25;78.55;;;;;;;10.81;72.67;99183.13;5034456;28;20122;-74
2024/01/02 07:12:37;;;;;;;83.35;79.15;;;;;;;10.82;72.49;99177.41;5022701;28;20140;-74
2024/01/02 07:15:05;;;;;;;82.60;78.68;;;;;;;10.82;72.38;99169.31;5038105;28;20045;-74
2024/01/02 07:17:30;;;;;;;85.93;81.93;;;;;;;10.83;72.56;99179.03;5031582;28;20030;-74
2024/01/02 07:19:56;;;;;;;84.47;80.63;;;;;;;10.86;72.55;99179.53;5042395;28;20115;-74
2024/01/02 07:22:21;;;;;;;79.15;75.60;;;;;;;10.88;72.58;99182.78;5031406;28;20029;-74
2024/01/02 07:24:47;;;;;;;83.47;79.68;;;;;;;10.87;72.22;99197.38;5024062;28;20505;-74
2024/01/02 07:27:14;;;;;;;85.95;81.85;;;;;;;10.88;72.43;99197.09;5032114;28;20034;-74
2024/01/02 07:29:39;;;;;;;86.75;82.82;;;;;;;10.91;72.72;99198.41;5029762;28;20099;-73
2024/01/02 07:32:05;;;;;;;83.40;79.45;;;;;;;10.93;72.64;99204.34;5031717;28;20489;-73
2024/01/02 07:34:30;;;;;;;83.32;79.43;;;;;;;10.94;72.46;99206.78;5028520;28;20604;-73
2024/01/02 07:36:56;;;;;;;89.03;84.63;;;;;;;10.95;72.38;99211.06;5017972;28;20394;-73
2024/01/02 07:39:21;;;;;;;85.13;81.32;;;;;;;10.96;72.46;99212.72;5015769;28;20475;-75
2024/01/02 07:41:47;;;;;;;84.10;80.22;;;;;;;10.99;72.59;99219.44;5016793;28;20038;-74
2024/01/02 07:44:12;;;;;;;84.40;80.60;;;;;;;11.00;72.85;99223.75;5021187;28;20115;-75
2024/01/02 07:46:37;;;;;;;84.57;80.18;;;;;;;11.02;72.34;99224.28;5020470;28;20046;-73
2024/01/02 07:49:03;;;;;;;80.47;76.50;;;;;;;11.04;72.57;99219.41;5016144;28;20120;-73
2024/01/02 07:51:28;;;;;;;84.38;80.25;;;;;;;11.05;72.25;99218.31;5030568;28;20354;-73
2024/01/02 07:53:53;;;;;;;88.97;84.88;;;;;;;11.05;72.42;99223.72;5034942;28;20034;-73
2024/01/02 07:56:20;;;;;;;81.88;77.60;;;;;;;11.07;72.38;99228.84;5036273;28;20465;-73
2024/01/02 07:58:49;;;;;;;82.47;78.75;;;;;;;11.10;72.40;99231.78;5024861;28;20519;-73
2024/01/02 08:01:17;;;;;;;82.57;78.25;;;;;;;11.10;72.13;99223.66;5029170;28;20045;-73
2024/01/02 08:03:43;;;;;;;83.80;80.00;;;;;;;11.14;72.52;99226.63;5022511;28;20036;-73
2024/01/02 08:06:08;;;;;;;82.25;78.45;;;;;;;11.16;72.43;99217.13;5032302;28;20038;-73
2024/01/02 08:08:34;;;;;;;82.72;78.90;;;;;;;11.17;72.14;99223.34;5017007;28;20041;-73
2024/01/02 08:10:59;;;;;;;87.78;83.40;;;;;;;11.19;72.13;99231.97;5021408;28;20199;-73
2024/01/02 08:13:25;;;;;;;82.88;79.18;;;;;;;11.22;72.25;99234.09;5026534;28;20079;-72
2024/01/02 08:15:50;;;;;;;81.63;77.82;;;;;;;11.23;72.13;99249.22;5027733;28;20034;-73
2024/01/02 08:18:16;;;;;;;82.10;78.32;;;;;;;11.26;72.24;99248.66;5028274;28;20432;-73
2024/01/02 08:20:41;;;;;;;85.50;81.53;;;;;;;11.28;72.19;99243.78;5021636;28;20113;-73
2024/01/02 08:23:07;;;;;;;81.28;77.55;;;;;;;11.29;72.20;99242.69;5012510;28;20124;-73
2024/01/02 08:25:33;;;;;;;91.57;87.07;;;;;;;11.31;72.15;99239.69;5013240;28;20042;-74
2024/01/02 08:27:58;;;;;;;80.88;77.25;;;;;;;11.34;72.00;99239.13;5038425;28;20037;-75
2024/01/02 08:30:24;;;;;;;81.03;77.35;;;;;;;11.34;71.97;99237.25;5030252;28;20039;-73
2024/01/02 08:32:50;;;;;;;84.85;80.75;;;;;;;11.35;71.85;99235.34;5029230;28;20044;-74
2024/01/02 08:35:16;;;;;;;88.00;83.95;;;;;;;11.34;72.13;99241.81;5027880;28;20037;-74
2024/01/02 08:37:42;;;;;;;87.82;83.85;;;;;;;11.34;71.99;99228.31;5022348;28;20465;-74
2024/01/02 08:40:09;;;;;;;91.30;87.30;;;;;;;11.34;71.85;99231.00;5011139;28;20041;-74
2024/01/02 08:42:35;;;;;;;85.18;81.10;;;;;;;11.36;71.94;99223.44;5022806;28;20092;-74
2024/01/02 08:45:01;;;;;;;83.32;79.40;;;;;;;11.34;71.87;99218.31;5056005;28;20038;-75
2024/01/02 08:47:26;;;;;;;88.07;83.97;;;;;;;11.34;71.73;99214.78;5014322;28;20072;-76
2024/01/02 08:49:52;;;;;;;83.65;79.72;;;;;;;11.32;71.76;99208.88;5015283;28;20381;-76
2024/01/02 08:52:17;;;;;;;85.07;81.28;;;;;;;11.32;71.69;99204.28;5030422;28;20037;-75
2024/01/02 08:54:43;;;;;;;87.22;83.25;;;;;;;11.33;71.82;99210.50;5044693;28;20048;-76
2024/01/02 08:57:08;;;;;;;84.25;80.45;;;;;;;11.32;71.81;99215.09;5043793;28;20037;-75
2024/01/02 08:59:34;;;;;;;86.95;82.95;;;;;;;11.33;71.90;99205.09;5037108;28;20520;-75
2024/01/02 09:01:59;;;;;;;90.38;85.75;;;;;;;11.36;72.12;99205.31;5025110;28;20033;-74
2024/01/02 09:04:25;;;;;;;87.13;82.88;;;;;;;11.39;71.75;99202.06;5021647;28;20467;-75
2024/01/02 09:06:51;;;;;;;88.45;83.43;;;;;;;11.40;71.85;99192.84;5021409;28;20033;-74
2024/01/02 09:09:17;;;;;;;82.70;78.88;;;;;;;11.39;71.75;99188.53;5026578;28;20072;-74
2024/01/02 09:11:43;;;;;;;82.28;78.55;;;;;;;11.38;71.66;99191.50;5026022;28;20072;-75
2024/01/02 09:14:08;;;;;;;82.50;78.88;;;;;;;11.38;71.70;99188.81;5027932;28;20042;-74
2024/01/02 09:16:36;;;;;;;83.88;80.13;;;;;;;11.39;71.60;99190.41;5026493;28;20091;-74
2024/01/02 09:19:02;;;;;;;85.00;81.25;;;;;;;11.38;71.84;99178.00;5024194;28;20044;-74
2024/01/02 09:21:27;;;;;;;82.47;78.68;;;;;;;11.40;71.80;99170.41;5040613;28;20021;-74
2024/01/02 09:23:53;;;;;;;85.40;81.35;;;;;;;11.42;72.12;99170.94;5014676;28;20045;-76
2024/01/02 09:26:22;;;;;;;88.75;84.70;;;;;;;11.45;71.74;99176.56;5023458;28;20038;-74
2024/01/02 09:28:48;;;;;;;85.93;81.97;;;;;;;11.46;71.55;99169.25;5011430;28;20022;-75
2024/01/02 09:31:13;;;;;;;81.60;77.88;;;;;;;11.47;71.80;99179.78;5019130;28;20452;-75
2024/01/02 09:33:39;;;;;;;89.05;85.03;;;;;;;11.48;71.72;99177.88;5026125;28;20053;-75
2024/01/02 09:36:08;;;;;;;89.65;85.65;;;;;;;11.48;71.69;99177.88;5018899;28;20041;-76
2024/01/02 09:38:33;;;;;;;;;;;;;;;11.46;71.61;99180.06;5026771;28;20037;-74
2024/01/02 09:41:23;;;;;;;83.00;79.30;;;;;;;11.45;71.53;99181.16;5027217;28;19921;-75
2024/01/02 09:44:13;;;;;;;86.80;82.80;;;;;;;11.46;71.71;99171.97;5022445;28;20041;-75
2024/01/02 09:46:45;;;;;;;82.80;79.03;;;;;;;11.42;71.61;99171.75;5018868;28;20034;-75
2024/01/02 09:49:49;;;;;;;88.05;84.18;;;;;;;11.44;72.12;99166.84;5028069;28;20382;-76
2024/01/02 09:52:35;;;;;;;86.72;82.85;;;;;;;11.47;71.72;99168.19;5017540;28;20037;-75
2024/01/02 09:55:22;;;;;;;81.57;77.88;;;;;;;11.52;71.94;99170.81;5038077;28;20432;-76
2024/01/02 09:58:25;;;;;;;87.63;83.72;;;;;;;11.55;71.98;99169.44;5064083;28;20034;-76
2024/01/02 10:01:09;;;;;;;82.53;78.78;;;;;;;11.55;71.68;99175.66;5014722;28;20163;-75
2024/01/02 10:03:35;;;;;;;87.32;83.43;;;;;;;11.57;71.97;99172.66;5023035;28;20059;-75
2024/01/02 10:06:35;;;;;;;82.07;78.35;;;;;;;11.59;71.93;99159.66;5042730;28;20040;-76
2024/01/02 10:09:30;;;;;;;87.18;83.28;;;;;;;11.61;71.90;99165.56;5031685;28;20036;-75
2024/01/02 10:12:20;;;;;;;86.60;82.60;;;;;;;11.63;71.92;99163.41;5023599;28;20116;-75
2024/01/02 10:15:08;;;;;;;87.63;83.63;;;;;;;11.64;71.61;99151.47;5031248;28;20068;-76
2024/01/02 10:17:42;;;;;;;83.95;80.22;;;;;;;11.68;71.80;99163.34;5025433;28;20030;-76
2024/01/02 10:20:19;;;;;;;84.38;80.63;;;;;;;11.69;71.98;99151.41;5024103;28;20038;-75
2024/01/02 10:23:09;;;;;;;86.20;82.35;;;;;;;11.69;71.68;99138.72;5025954;28;20037;-75
2024/01/02 10:25:37;;;;;;;86.30;82.43;;;;;;;11.69;71.73;99140.59;5076042;28;20040;-75
2024/01/02 10:28:18;;;;;;;87.05;83.20;;;;;;;11.68;71.91;99147.91;5028399;28;20040;-77
2024/01/02 10:30:55;;;;;;;86.18;82.35;;;;;;;11.69;72.20;99143.28;5013191;28;20034;-75
2024/01/02 10:33:40;;;;;;;84.85;81.15;;;;;;;11.71;71.85;99138.41;5026974;28;20064;-77
2024/01/02 10:36:10;;;;;;;88.35;84.40;;;;;;;11.71;71.80;99141.13;5033457;28;20395;-77
2024/01/02 10:38:47;;;;;;;88.00;84.15;;;;;;;11.73;72.15;99127.31;5027871;28;20029;-76
2024/01/02 10:41:21;;;;;;;87.45;83.57;;;;;;;11.75;71.73;99133.25;5045723;28;20091;-76
2024/01/02 10:44:02;;;;;;;89.78;85.78;;;;;;;11.75;71.93;99130.53;5014147;28;20083;-75
2024/01/02 10:46:55;;;;;;;90.10;86.20;;;;;;;11.76;72.06;99127.53;5013196;28;20117;-75
2024/01/02 10:49:33;;;;;;;87.28;83.47;;;;;;;11.78;72.09;99113.72;5012975;28;20466;-75
2024/01/02 10:52:10;;;;;;;90.47;86.38;;;;;;;11.79;71.83;99121.56;5031999;28;20033;-75
2024/01/02 10:54:47;;;;;;;88.88;85.03;;;;;;;11.79;71.95;99110.75;5028228;28;20470;-75
2024/01/02 10:57:24;;;;;;;85.68;81.93;;;;;;;11.81;72.05;99113.13;5012695;28;20037;-75
2024/01/02 11:00:08;;;;;;;88.53;84.43;;;;;;;11.82;71.77;99103.94;5035392;28;20121;-76
2024/01/02 11:02:39;;;;;;;88.65;84.78;;;;;;;11.84;71.78;99093.59;5028540;28;20053;-75
2024/01/02 11:05:10;;;;;;;90.70;86.70;;;;;;;11.87;71.92;99096.59;5027483;28;20037;-75
2024/01/02 11:07:40;;;;;;;88.90;85.03;;;;;;;11.87;71.68;99091.16;5031661;28;20327;-75
2024/01/02 11:10:13;;;;;;;90.40;86.40;;;;;;;11.90;71.96;99084.38;5031042;28;20037;-75
2024/01/02 11:13:03;;;;;;;90.07;86.18;;;;;;;11.92;71.61;99074.06;5026594;28;20030;-75
2024/01/02 11:15:34;;;;;;;87.03;83.22;;;;;;;11.93;71.54;99061.34;5011423;28;20572;-75
2024/01/02 11:18:03;;;;;;;93.18;88.97;;;;;;;11.94;71.84;99062.94;5012029;28;20041;-75
2024/01/02 11:20:53;;;;;;;91.03;87.07;;;;;;;11.94;71.74;99044.78;5017089;28;20048;-75
2024/01/02 11:23:24;;;;;;;91.05;87.07;;;;;;;11.96;71.60;99053.44;5021386;28;20050;-75